North Hollywood, CA (91616)

5:10 PM PST on December 05, 2016 (GMT -0800)
Valley Village | | Change Station

Elev 673 ft 34.17 °N, 118.40 °W | Updated 13 seconds ago

Clear
Clear
58.6 °F
Feels Like 58.6 °F
N
0.0
Wind Variable Wind from SSW
Gusts 0.0 mph

Today
High -- | Low -- °F
--% Chance of Precip.
Yesterday
High -- | Low -- °F
Precip. -- in
Pressure 29.89 in
Visibility 10.0 miles
Clouds Clear
Dew Point 52 °F
Humidity 80%
Rainfall 0.00 in
Snow Depth Not available.
6:45 AM 4:43 PM
Waxing Crescent, 36% visible
METAR KBUR 060053Z 19003KT 10SM CLR 16/09 A2991 RMK AO2 SLP121 T01560094
Pressure 29.89 in
Visibility 10.0 miles
Clouds Clear
Dew Point 52 °F
Humidity 80%
Rainfall 0.00 in
Snow Depth Not available.
6:45 AM 4:43 PM
Waxing Crescent, 36% visible
METAR KBUR 060053Z 19003KT 10SM CLR 16/09 A2991 RMK AO2 SLP121 T01560094

10-Day Weather Forecast

Almanac

Astronomy

Dec. 05, 2016 Rise Set
Actual Time
Civil Twilight
Nautical Twilight
Astronomical Twilight
Moon
Length of Visible Light
Length of Day
Tomorrow will be .
, % of the Moon is Illuminated

Today's Extremes

State Highs State Lows

Community

WunderPhotos

Upload Photos

1,955,880 photos uploaded!

WunderBlog® & News

Nearby

Air Quality

  Air Quality AQ Index Pollutant
Not available.

Snow Depth

Station Depth Elevation

Earthquake Activity

City Distance Mag. Time & Date
Minimum magnitude displayed is 2.5.

Coastal Water Temperatures

Place Temperature

Stations

Nearby Weather Stations

Station Location Temp. Windchill Dew Point Humidity Wind Precip. Elev Updated Type
                   

Watches & Warnings

There are currently no watches in effect.